Time;durP1;ratioP1;P1;durP2;ratioP2;P2;SDS_P1;SDS_P2;PMS_P1;PMS_P2;Temp;Humidity;BMP_temperature;BMP_pressure;BME280_temperature;BME280_humidity;BME280_pressure;Samples;Min_cycle;Max_cycle;Signal;HPM_P1;HPM_P2
2022/12/18 00:00:28;;;;;;;9.90;5.10;;;;;;;11.99;83.79;99315.44;24552;1330;3029841;-68
2022/12/18 00:02:57;;;;;;;12.50;6.30;;;;;;;11.81;83.11;99319.65;24566;1324;3026189;-65
2022/12/18 00:05:26;;;;;;;9.90;5.80;;;;;;;11.44;84.68;99322.14;24474;1330;3048759;-67
2022/12/18 00:07:55;;;;;;;10.60;5.90;;;;;;;11.18;85.80;99329.92;24522;1326;3028366;-65
2022/12/18 00:10:24;;;;;;;10.90;6.00;;;;;;;11.09;86.05;99334.88;24517;1333;3051608;-65
2022/12/18 00:12:53;;;;;;;6.50;3.70;;;;;;;11.01;86.32;99339.30;24532;1333;3026294;-67
2022/12/18 00:15:22;;;;;;;11.00;4.70;;;;;;;11.49;85.17;99337.06;24485;1333;3050980;-66
2022/12/18 00:17:50;;;;;;;9.60;4.50;;;;;;;11.98;82.98;99338.35;24594;1333;3027350;-65
2022/12/18 00:20:25;;;;;;;8.00;5.60;;;;;;;12.13;81.52;99340.46;24506;1332;3052082;-66
2022/12/18 00:22:54;;;;;;;11.60;6.70;;;;;;;11.67;82.39;99348.63;24479;1330;3051792;-67
2022/12/18 00:25:23;;;;;;;9.80;6.00;;;;;;;11.41;82.73;99342.83;24573;1323;3026289;-67
2022/12/18 00:27:52;;;;;;;11.30;6.80;;;;;;;11.11;83.68;99345.80;24488;1337;3050909;-64
2022/12/18 00:30:22;;;;;;;13.20;7.50;;;;;;;10.90;84.01;99349.78;24470;1334;3028796;-69
2022/12/18 00:32:50;;;;;;;10.00;4.90;;;;;;;10.59;83.91;99349.45;24587;1323;3026564;-63
2022/12/18 00:35:19;;;;;;;9.90;5.00;;;;;;;11.21;81.91;99345.20;24550;1340;3052287;-65
2022/12/18 00:37:49;;;;;;;6.90;4.40;;;;;;;11.34;79.70;99344.52;24584;1331;3026060;-65
2022/12/18 00:40:17;;;;;;;8.00;4.50;;;;;;;11.06;80.09;99352.82;24553;1324;3051299;-65
2022/12/18 00:42:55;;;;;;;9.40;5.00;;;;;;;10.64;80.88;99358.46;24560;1331;3028733;-68
2022/12/18 00:45:27;;;;;;;7.80;4.90;;;;;;;10.41;82.20;99349.20;24526;1334;3057145;-70
2022/12/18 00:47:56;;;;;;;8.40;5.40;;;;;;;10.17;83.12;99347.44;24504;1331;3026692;-63
2022/12/18 00:50:25;;;;;;;7.70;4.00;;;;;;;9.85;84.26;99355.29;24551;1331;3026617;-65
2022/12/18 00:52:54;;;;;;;6.40;4.00;;;;;;;10.40;83.08;99362.84;24527;1333;3028677;-68
2022/12/18 00:55:26;;;;;;;7.70;3.80;;;;;;;10.64;80.59;99371.77;24593;1337;3028050;-68
2022/12/18 00:57:56;;;;;;;8.10;4.30;;;;;;;10.46;80.50;99366.86;24525;1337;3028445;-65
2022/12/18 01:00:24;;;;;;;7.70;4.10;;;;;;;10.41;79.81;99375.59;24516;1332;3025836;-67
2022/12/18 01:02:53;;;;;;;7.70;4.50;;;;;;;10.26;79.68;99385.43;24524;1334;3052033;-65
2022/12/18 01:05:22;;;;;;;6.90;4.30;;;;;;;9.98;80.75;99395.29;24594;1330;3028588;-67
2022/12/18 01:07:51;;;;;;;7.80;4.10;;;;;;;9.53;81.46;99402.11;24507;1333;3051449;-69
2022/12/18 01:10:22;;;;;;;7.00;4.10;;;;;;;9.31;82.29;99408.25;24620;1331;3025904;-63
2022/12/18 01:12:51;;;;;;;5.50;3.60;;;;;;;9.08;82.45;99409.89;24542;1333;3028839;-64
2022/12/18 01:15:20;;;;;;;6.90;3.50;;;;;;;9.19;80.73;99421.32;24518;1332;3028257;-66
2022/12/18 01:17:52;;;;;;;7.10;3.50;;;;;;;9.15;79.53;99424.66;24496;1336;3051843;-65
2022/12/18 01:20:22;;;;;;;8.70;4.20;;;;;;;9.14;78.92;99428.04;24532;1340;3027327;-64
2022/12/18 01:22:51;;;;;;;5.30;3.60;;;;;;;8.68;79.52;99431.08;24511;1330;3028825;-64
2022/12/18 01:25:20;;;;;;;6.80;3.60;;;;;;;8.18;79.70;99433.09;24497;1337;3027792;-66
2022/12/18 01:27:49;;;;;;;5.00;3.40;;;;;;;7.70;81.01;99433.25;24508;1324;3048646;-68
2022/12/18 01:30:20;;;;;;;11.50;3.40;;;;;;;7.48;81.27;99443.73;24490;1330;3029070;-66
2022/12/18 01:32:50;;;;;;;3.70;2.50;;;;;;;7.05;81.43;99455.15;24582;1334;3026548;-64
2022/12/18 01:35:19;;;;;;;3.10;2.50;;;;;;;6.79;82.10;99453.38;24514;1330;3027071;-65
2022/12/18 01:37:49;;;;;;;3.60;2.50;;;;;;;6.65;82.42;99468.27;24518;1325;3067428;-67
2022/12/18 01:40:18;;;;;;;2.40;1.80;;;;;;;6.66;83.04;99455.16;24534;1337;3028611;-63
2022/12/18 01:42:53;;;;;;;2.20;1.80;;;;;;;7.25;81.70;99464.14;24525;1334;3026233;-67
2022/12/18 01:45:25;;;;;;;3.70;2.50;;;;;;;7.67;79.29;99470.72;24513;1337;3069344;-64
2022/12/18 01:47:57;;;;;;;5.20;3.40;;;;;;;7.48;78.97;99476.13;24539;1330;3028704;-67
2022/12/18 01:50:36;;;;;;;7.20;4.30;;;;;;;7.11;79.85;99479.08;24533;1327;3026557;-67
2022/12/18 01:53:14;;;;;;;9.30;4.40;;;;;;;6.66;80.06;99486.13;24520;1328;3053004;-65
2022/12/18 01:55:57;;;;;;;5.80;3.00;;;;;;;6.27;81.63;99484.15;24535;1337;3053650;-65
2022/12/18 01:58:38;;;;;;;7.30;4.00;;;;;;;6.08;82.25;99491.39;24555;1326;3052129;-67
2022/12/18 02:01:07;;;;;;;5.90;2.70;;;;;;;5.95;82.83;99498.35;24588;1327;3052162;-65
2022/12/18 02:03:36;;;;;;;4.70;2.80;;;;;;;5.87;82.08;99513.10;24473;1327;3028874;-69
2022/12/18 02:06:20;;;;;;;2.90;2.00;;;;;;;5.61;82.15;99498.32;24539;1325;3052891;-67
2022/12/18 02:09:02;;;;;;;;;;;;;;;6.12;81.15;99502.36;24553;1330;3052503;-65
2022/12/18 02:11:47;;;;;;;3.50;2.20;;;;;;;6.39;78.68;99506.79;24508;1322;3048405;-66
2022/12/18 02:14:49;;;;;;;3.30;2.40;;;;;;;6.18;78.33;99505.23;24513;1333;3068798;-65
2022/12/18 02:17:19;;;;;;;3.70;2.40;;;;;;;5.64;79.97;99511.92;24444;1341;3048323;-66
2022/12/18 02:20:25;;;;;;;3.60;2.60;;;;;;;5.45;80.58;99524.65;24506;1339;3028567;-66
2022/12/18 02:23:28;;;;;;;4.70;3.00;;;;;;;5.34;80.85;99515.35;24476;1332;3053197;-64
2022/12/18 02:26:15;;;;;;;3.00;2.20;;;;;;;5.13;81.83;99526.02;24526;1333;3053703;-66
2022/12/18 02:28:49;;;;;;;4.20;2.60;;;;;;;5.00;82.75;99532.04;24542;1322;3051943;-63
2022/12/18 02:31:22;;;;;;;9.00;2.70;;;;;;;4.96;82.70;99542.97;23827;1333;4572820;-65
2022/12/18 02:33:52;;;;;;;4.30;2.40;;;;;;;4.99;82.87;99543.05;24554;1334;3052989;-66
2022/12/18 02:36:21;;;;;;;3.90;2.30;;;;;;;5.66;81.50;99558.91;24470;1330;3029106;-68
2022/12/18 02:38:51;;;;;;;3.70;2.40;;;;;;;6.04;78.73;99561.81;24493;1329;3026299;-68
2022/12/18 02:41:23;;;;;;;4.40;2.80;;;;;;;5.81;79.12;99573.46;24499;1328;3028499;-64
2022/12/18 02:44:01;;;;;;;5.10;3.10;;;;;;;5.66;79.09;99575.77;24475;1336;3050857;-64
2022/12/18 02:46:32;;;;;;;4.30;2.90;;;;;;;5.58;79.52;99576.42;24540;1334;3052344;-63
2022/12/18 02:49:09;;;;;;;5.40;4.00;;;;;;;5.27;80.09;99570.15;24505;1334;3024840;-68
2022/12/18 02:52:01;;;;;;;5.40;3.60;;;;;;;4.99;80.91;99577.06;24499;1335;3069237;-66
2022/12/18 02:54:49;;;;;;;6.00;3.70;;;;;;;4.82;81.72;99581.31;24486;1332;3050375;-62
2022/12/18 02:57:48;;;;;;;6.70;4.00;;;;;;;4.75;82.04;99579.28;24548;1331;3056496;-63
2022/12/18 03:00:38;;;;;;;6.20;4.10;;;;;;;4.53;82.38;99585.76;24547;1333;3051271;-66
2022/12/18 03:03:23;;;;;;;5.20;3.10;;;;;;;4.49;83.37;99600.29;24562;1333;3053406;-63
2022/12/18 03:05:53;;;;;;;7.90;4.10;;;;;;;5.22;81.23;99599.48;24541;1334;3050777;-67
2022/12/18 03:08:28;;;;;;;6.10;4.00;;;;;;;5.74;78.56;99608.52;24526;1332;3028597;-63
2022/12/18 03:11:04;;;;;;;8.70;4.90;;;;;;;5.67;78.10;99617.99;24529;1334;3048455;-64
2022/12/18 03:13:44;;;;;;;7.30;4.80;;;;;;;5.63;77.88;99614.48;24504;1327;3067967;-65
2022/12/18 03:16:17;;;;;;;9.90;5.30;;;;;;;5.28;78.06;99619.95;24583;1331;3049752;-63
2022/12/18 03:18:52;;;;;;;8.10;5.00;;;;;;;4.84;78.36;99619.38;24492;1334;3026630;-63
2022/12/18 03:21:23;;;;;;;8.20;4.80;;;;;;;4.41;79.08;99621.90;24535;1334;3051215;-64
2022/12/18 03:23:53;;;;;;;6.90;3.80;;;;;;;4.35;79.08;99626.27;24563;1324;3025157;-63
2022/12/18 03:26:25;;;;;;;4.20;3.20;;;;;;;3.88;79.60;99631.70;24443;1326;3028432;-67
2022/12/18 03:28:59;;;;;;;6.30;3.20;;;;;;;3.70;80.25;99625.30;24537;1331;3026675;-68
2022/12/18 03:31:29;;;;;;;7.10;3.70;;;;;;;3.61;80.22;99627.48;24546;1334;3048995;-68
2022/12/18 03:34:03;;;;;;;5.30;2.90;;;;;;;3.44;80.56;99643.92;24409;1335;3027978;-64
2022/12/18 03:36:40;;;;;;;3.80;2.30;;;;;;;3.40;81.01;99639.35;24503;1344;3055372;-63
2022/12/18 03:39:09;;;;;;;5.10;2.80;;;;;;;4.01;79.26;99646.05;24530;1334;3026506;-63
2022/12/18 03:41:44;;;;;;;4.90;2.50;;;;;;;4.41;76.99;99652.78;24504;1336;3054387;-64
2022/12/18 03:44:40;;;;;;;4.80;2.30;;;;;;;4.33;76.48;99654.24;24589;1320;3052702;-65
2022/12/18 03:47:28;;;;;;;4.50;2.50;;;;;;;4.22;76.47;99650.95;24488;1325;3048849;-62
2022/12/18 03:50:00;;;;;;;4.90;2.40;;;;;;;3.65;77.59;99668.06;24494;1334;3069575;-65
2022/12/18 03:52:38;;;;;;;5.00;2.90;;;;;;;3.58;77.91;99653.55;24554;1326;3050943;-67
2022/12/18 03:55:08;;;;;;;4.60;2.70;;;;;;;3.34;78.70;99659.92;24453;1327;3056280;-65
2022/12/18 03:57:38;;;;;;;3.30;1.90;;;;;;;3.11;79.64;99670.77;24481;1336;3028372;-66
2022/12/18 04:00:10;;;;;;;3.50;2.60;;;;;;;3.06;79.43;99679.56;24544;1334;3028446;-65
2022/12/18 04:02:58;;;;;;;3.30;2.60;;;;;;;2.84;80.60;99681.52;24563;1317;3051864;-66
2022/12/18 04:05:34;;;;;;;2.70;2.20;;;;;;;2.94;80.44;99685.07;24530;1327;3053236;-67
2022/12/18 04:08:03;;;;;;;3.90;2.80;;;;;;;2.77;80.91;99691.55;24471;1336;3028299;-63
2022/12/18 04:10:36;;;;;;;2.30;1.80;;;;;;;2.80;81.15;99691.46;24493;1331;3028669;-64
2022/12/18 04:43:08;;;;;;;2.20;1.90;;;;;;;2.56;80.64;99757.45;24569;1324;3069367;-65
2022/12/18 04:45:37;;;;;;;2.60;1.80;;;;;;;2.64;81.33;99748.61;24530;1331;3049743;-64
2022/12/18 04:57:06;;;;;;;2.40;1.50;;;;;;;3.83;76.03;99752.98;24496;1340;3049257;-63
2022/12/18 04:59:35;;;;;;;2.50;1.70;;;;;;;3.62;76.57;99757.39;24549;1322;3028897;-62
2022/12/18 05:02:04;;;;;;;3.10;2.10;;;;;;;3.33;77.18;99766.98;24463;1324;3069335;-62
2022/12/18 05:04:34;;;;;;;3.30;2.40;;;;;;;3.11;78.08;99770.66;24539;1334;3026466;-64
2022/12/18 05:07:02;;;;;;;2.60;1.80;;;;;;;3.08;78.57;99766.23;24567;1331;3026329;-65
2022/12/18 05:09:31;;;;;;;2.50;2.00;;;;;;;3.02;78.81;99773.82;24521;1331;3068612;-64
2022/12/18 05:12:00;;;;;;;3.50;2.30;;;;;;;2.96;79.00;99777.43;24587;1323;3028199;-64
2022/12/18 05:14:30;;;;;;;3.50;2.40;;;;;;;2.98;79.21;99786.55;24474;1335;3049001;-66
2022/12/18 05:16:59;;;;;;;3.30;2.30;;;;;;;3.02;79.23;99789.73;24520;1332;3026910;-62
2022/12/18 05:19:28;;;;;;;2.80;2.00;;;;;;;2.93;79.41;99793.08;24518;1335;3051002;-62
2022/12/18 06:23:59;;;;;;;12.20;5.20;;;;;;;2.35;79.63;99914.20;24479;1334;3058205;-66
2022/12/18 06:26:29;;;;;;;9.70;5.00;;;;;;;2.44;79.49;99912.98;24577;1329;3028565;-64
2022/12/18 06:28:58;;;;;;;10.90;5.00;;;;;;;2.47;79.61;99918.10;24526;1324;3025288;-62
2022/12/18 06:31:27;;;;;;;6.80;3.70;;;;;;;3.15;78.51;99907.98;24518;1333;3056188;-67
2022/12/18 06:33:56;;;;;;;9.40;4.70;;;;;;;3.75;76.21;99920.06;24590;1331;3026090;-70
2022/12/18 06:36:25;;;;;;;11.20;5.70;;;;;;;3.80;75.16;99919.42;24522;1323;3028416;-65
2022/12/18 06:38:54;;;;;;;11.60;4.90;;;;;;;3.71;75.24;99915.67;24526;1324;3055975;-63
2022/12/18 06:41:23;;;;;;;11.90;5.90;;;;;;;3.60;75.46;99920.10;24538;1324;3025035;-62
2022/12/18 06:43:53;;;;;;;10.00;5.90;;;;;;;3.43;75.84;99921.52;24553;1334;3049361;-64
2022/12/18 06:46:21;;;;;;;9.50;5.10;;;;;;;3.38;76.57;99918.73;24533;1334;3025247;-67
2022/12/18 06:48:50;;;;;;;9.30;5.00;;;;;;;3.37;76.92;99921.52;24480;1324;3068400;-63
2022/12/18 06:51:20;;;;;;;10.00;5.70;;;;;;;3.24;77.27;99925.27;24581;1325;3030463;-64
2022/12/18 06:53:49;;;;;;;10.40;5.40;;;;;;;3.25;77.26;99927.17;24513;1334;3049686;-66
2022/12/18 06:56:18;;;;;;;10.70;5.60;;;;;;;3.12;77.95;99939.93;24562;1333;3026124;-65
2022/12/18 06:58:50;;;;;;;9.70;5.60;;;;;;;3.10;78.22;99943.42;24551;1323;3052563;-61
2022/12/18 07:01:19;;;;;;;10.20;5.50;;;;;;;3.15;77.92;99943.16;24522;1341;3025872;-64
2022/12/18 07:03:53;;;;;;;10.50;4.70;;;;;;;3.20;78.19;99952.73;24604;1330;3028564;-64
2022/12/18 07:06:24;;;;;;;6.90;3.50;;;;;;;3.79;77.27;99953.92;24554;1334;3052070;-63
2022/12/18 07:08:54;;;;;;;7.70;4.30;;;;;;;4.45;75.36;99956.36;24532;1341;3028060;-61
2022/12/18 07:11:23;;;;;;;8.50;4.50;;;;;;;4.58;73.78;99957.75;24559;1323;3026062;-67
2022/12/18 07:13:52;;;;;;;9.50;5.10;;;;;;;3.87;74.16;99964.46;24518;1337;3028732;-67
2022/12/18 07:16:22;;;;;;;12.50;5.60;;;;;;;3.76;74.55;99961.27;24550;1330;3028380;-67
2022/12/18 07:18:51;;;;;;;9.80;5.10;;;;;;;3.40;74.52;99970.27;24543;1333;3068895;-65
2022/12/18 07:21:20;;;;;;;8.60;4.70;;;;;;;3.26;75.17;99966.27;24492;1331;3026696;-65
2022/12/18 07:23:49;;;;;;;11.70;5.80;;;;;;;3.22;75.63;99970.16;24535;1324;3028339;-68
2022/12/18 07:26:19;;;;;;;10.30;5.10;;;;;;;3.13;75.79;99971.06;24560;1333;3068641;-66
2022/12/18 07:28:49;;;;;;;9.00;5.60;;;;;;;2.94;76.18;99988.08;24599;1331;3028546;-67
2022/12/18 07:31:20;;;;;;;9.60;5.40;;;;;;;2.87;76.45;99989.08;24545;1333;3026648;-68
2022/12/18 07:33:50;;;;;;;10.20;5.10;;;;;;;2.95;76.78;99991.17;24538;1331;3025745;-62
2022/12/18 07:36:19;;;;;;;10.70;5.40;;;;;;;2.92;76.54;99999.38;24619;1331;3026526;-63
2022/12/18 07:38:48;;;;;;;11.30;5.60;;;;;;;2.84;76.66;100004.02;24565;1333;3029225;-66
2022/12/18 07:41:18;;;;;;;11.40;5.50;;;;;;;2.63;77.60;100005.66;24571;1331;3026648;-69
2022/12/18 07:43:47;;;;;;;9.40;5.40;;;;;;;2.65;77.74;100009.08;24521;1316;3026774;-64
2022/12/18 07:46:17;;;;;;;10.20;4.80;;;;;;;2.71;77.60;100005.14;24575;1324;3028813;-65
2022/12/18 07:48:46;;;;;;;5.70;3.30;;;;;;;3.39;76.67;100003.20;24516;1331;3052805;-68
2022/12/18 07:51:15;;;;;;;7.70;4.60;;;;;;;4.15;74.22;100004.52;24601;1324;3025715;-67
2022/12/18 07:53:44;;;;;;;11.20;5.90;;;;;;;4.05;73.06;100007.02;24537;1326;3050848;-66
2022/12/18 07:56:13;;;;;;;13.60;6.30;;;;;;;3.97;73.39;100004.26;24539;1331;3028133;-65
2022/12/18 07:58:44;;;;;;;12.50;6.10;;;;;;;3.76;73.69;100004.77;24603;1323;3026254;-66
2022/12/18 08:01:16;;;;;;;11.80;6.40;;;;;;;3.71;74.22;100009.05;24600;1331;3051002;-65
2022/12/18 08:03:45;;;;;;;13.60;7.10;;;;;;;3.47;74.82;100010.82;24569;1330;3025671;-67
2022/12/18 08:06:14;;;;;;;16.00;8.60;;;;;;;3.18;75.70;100019.58;24581;1324;3052584;-70
2022/12/18 08:08:43;;;;;;;18.40;8.60;;;;;;;2.89;77.00;100028.67;24573;1324;3025323;-66
2022/12/18 08:11:12;;;;;;;15.90;8.50;;;;;;;2.71;77.68;100029.20;24566;1341;3051167;-66
2022/12/18 08:13:41;;;;;;;16.60;9.30;;;;;;;2.57;78.41;100025.66;24562;1324;3028062;-63
2022/12/18 08:16:10;;;;;;;25.10;11.10;;;;;;;2.45;78.92;100031.76;24516;1331;3055915;-64
2022/12/18 08:18:39;;;;;;;20.30;10.60;;;;;;;2.30;79.15;100029.77;24579;1333;3028847;-65
2022/12/18 08:21:18;;;;;;;22.50;10.40;;;;;;;2.18;79.70;100035.68;24560;1340;3049434;-64
2022/12/18 08:23:47;;;;;;;15.10;7.10;;;;;;;2.32;80.00;100035.96;24601;1334;3056826;-68
2022/12/18 08:26:16;;;;;;;14.00;7.00;;;;;;;2.93;78.54;100035.67;24522;1329;3028191;-64
2022/12/18 08:28:46;;;;;;;16.80;8.60;;;;;;;3.38;76.21;100035.45;24550;1334;3048481;-66
2022/12/18 08:31:15;;;;;;;17.10;9.30;;;;;;;3.36;75.73;100039.64;24537;1334;3028080;-65
2022/12/18 08:33:44;;;;;;;16.60;9.60;;;;;;;3.28;75.71;100042.42;24604;1329;3027843;-67
2022/12/18 08:36:13;;;;;;;15.90;9.00;;;;;;;2.94;76.40;100054.34;24542;1331;3049854;-69
2022/12/18 08:38:42;;;;;;;18.60;9.40;;;;;;;2.73;77.52;100054.59;24586;1327;3026180;-66
2022/12/18 08:41:12;;;;;;;16.40;8.80;;;;;;;2.75;77.72;100051.09;24531;1334;3068784;-68
2022/12/18 08:46:36;;;;;;;20.20;9.60;;;;;;;2.46;77.85;100053.88;24588;1324;3056199;-69
2022/12/18 08:49:05;;;;;;;19.90;9.90;;;;;;;2.38;77.88;100051.59;24562;1324;3052176;-67
2022/12/18 08:51:34;;;;;;;16.10;8.70;;;;;;;2.36;78.51;100050.08;24490;1339;3028756;-69
2022/12/18 08:54:04;;;;;;;17.20;8.20;;;;;;;2.36;78.44;100050.23;24566;1334;3028487;-68
2022/12/18 08:56:34;;;;;;;17.10;8.60;;;;;;;2.14;78.45;100058.56;24536;1334;3052100;-67
2022/12/18 08:59:04;;;;;;;13.60;7.60;;;;;;;2.04;78.77;100055.79;24598;1334;3025650;-65
2022/12/18 09:01:33;;;;;;;15.40;7.40;;;;;;;2.03;78.83;100057.19;24566;1323;3056854;-65
2022/12/18 09:04:02;;;;;;;12.60;6.50;;;;;;;1.98;79.23;100070.41;24530;1324;3026379;-65
2022/12/18 09:06:31;;;;;;;13.10;6.30;;;;;;;2.56;78.35;100060.42;24567;1340;3050131;-63
2022/12/18 09:09:03;;;;;;;12.80;6.70;;;;;;;3.17;75.87;100057.69;24588;1324;3026511;-67
2022/12/18 09:11:32;;;;;;;15.40;8.20;;;;;;;3.33;74.67;100055.10;24579;1324;3026079;-65
2022/12/18 09:14:01;;;;;;;12.40;7.40;;;;;;;3.07;74.70;100060.48;24530;1341;3025879;-62
2022/12/18 09:16:34;;;;;;;16.80;8.70;;;;;;;2.78;75.52;100069.89;24587;1323;3028836;-65
2022/12/18 09:19:04;;;;;;;17.30;8.20;;;;;;;2.62;76.09;100057.55;24543;1334;3029328;-68
2022/12/18 09:21:37;;;;;;;15.50;8.60;;;;;;;2.46;76.26;100067.53;24569;1340;3028108;-65
2022/12/18 09:24:08;;;;;;;15.10;8.20;;;;;;;2.25;76.72;100060.30;24507;1340;3026438;-67
2022/12/18 09:26:37;;;;;;;15.00;7.50;;;;;;;2.13;77.10;100060.84;24596;1334;3026849;-65
2022/12/18 09:29:07;;;;;;;14.20;7.60;;;;;;;2.03;77.28;100064.27;24589;1330;3026565;-69
2022/12/18 09:31:39;;;;;;;15.30;8.60;;;;;;;2.07;77.32;100066.62;24544;1332;3068649;-62
2022/12/18 09:34:08;;;;;;;13.80;6.90;;;;;;;1.95;78.25;100060.42;24568;1330;3026626;-66
2022/12/18 09:36:37;;;;;;;13.70;8.00;;;;;;;2.02;78.13;100057.23;24529;1340;3026276;-64
2022/12/18 09:39:06;;;;;;;12.80;6.50;;;;;;;2.08;77.90;100057.47;24568;1334;3067638;-66
2022/12/18 09:41:50;;;;;;;12.20;6.20;;;;;;;1.97;77.98;100057.63;24568;1323;3025852;-66
2022/12/18 09:44:21;;;;;;;;;;;;;;;1.94;78.13;100058.89;24606;1330;3050039;-65
2022/12/18 09:47:02;;;;;;;8.90;4.40;;;;;;;2.44;77.32;100061.48;24614;1330;3025627;-66
2022/12/18 09:49:33;;;;;;;10.70;5.50;;;;;;;3.04;74.75;100060.03;24497;1334;3050576;-68
2022/12/18 09:52:09;;;;;;;11.30;5.70;;;;;;;3.11;74.14;100064.92;24620;1331;3026447;-67
2022/12/18 09:54:44;;;;;;;11.60;6.50;;;;;;;3.18;73.62;100063.90;24544;1340;3051630;-67
2022/12/18 09:57:22;;;;;;;13.50;6.70;;;;;;;2.76;74.59;100063.00;24535;1333;3052035;-68
2022/12/18 10:00:08;;;;;;;13.30;6.40;;;;;;;2.52;75.13;100062.93;24531;1337;3049728;-62
2022/12/18 10:02:40;;;;;;;14.20;8.10;;;;;;;2.33;75.92;100061.54;24532;1334;3051764;-66
2022/12/18 10:05:41;;;;;;;11.80;7.20;;;;;;;2.08;76.99;100072.83;24569;1323;3028215;-69
2022/12/18 10:08:13;;;;;;;15.30;7.90;;;;;;;1.96;77.56;100074.23;24524;1340;3051162;-66
2022/12/18 10:11:01;;;;;;;18.40;9.20;;;;;;;1.93;77.72;100074.81;24592;1333;3025066;-68
2022/12/18 10:13:45;;;;;;;18.70;9.50;;;;;;;1.59;78.00;100078.41;24590;1333;3049063;-69
2022/12/18 10:16:47;;;;;;;17.00;9.20;;;;;;;1.48;78.32;100080.80;24577;1323;3069686;-65
2022/12/18 10:19:30;;;;;;;20.80;10.70;;;;;;;1.40;78.59;100079.35;24610;1333;3049795;-65
2022/12/18 10:22:17;;;;;;;22.50;10.50;;;;;;;1.38;78.61;100091.64;24591;1323;3056049;-68
2022/12/18 10:24:54;;;;;;;18.10;9.50;;;;;;;1.17;79.01;100082.58;24553;1333;3051986;-64
2022/12/18 10:27:26;;;;;;;11.70;6.50;;;;;;;1.37;78.43;100089.41;24595;1333;3053631;-65
2022/12/18 10:29:54;;;;;;;12.90;6.10;;;;;;;2.05;76.80;100081.52;24577;1323;3026083;-65
2022/12/18 10:32:26;;;;;;;13.10;6.50;;;;;;;2.69;74.58;100090.29;24569;1331;3025752;-66
2022/12/18 10:34:57;;;;;;;16.20;8.10;;;;;;;2.77;73.40;100093.77;24545;1340;3051962;-67
2022/12/18 10:37:28;;;;;;;18.30;7.70;;;;;;;2.48;73.03;100093.61;24564;1333;3025793;-65
2022/12/18 10:40:12;;;;;;;16.20;8.00;;;;;;;2.19;73.70;100097.55;24609;1334;3026474;-67
2022/12/18 10:42:43;;;;;;;13.70;6.20;;;;;;;1.97;73.31;100101.69;24531;1334;3049852;-69
2022/12/18 10:45:14;;;;;;;11.30;6.30;;;;;;;1.85;73.05;100096.85;24568;1337;3029019;-65
2022/12/18 10:47:48;;;;;;;11.60;6.20;;;;;;;1.70;72.93;100115.55;24543;1340;3028976;-68
2022/12/18 10:50:29;;;;;;;10.20;5.70;;;;;;;1.51;72.72;100113.39;24631;1324;3055849;-68
2022/12/18 10:52:59;;;;;;;11.30;5.50;;;;;;;1.47;72.90;100108.61;24551;1334;3051609;-62
2022/12/18 10:55:37;;;;;;;8.50;4.60;;;;;;;1.46;73.05;100105.68;24586;1343;3026737;-65
2022/12/18 10:58:27;;;;;;;12.50;6.30;;;;;;;1.36;72.92;100121.86;24544;1324;3051533;-65
2022/12/18 11:01:12;;;;;;;11.30;6.00;;;;;;;1.26;73.70;100110.42;24553;1325;3051846;-67
2022/12/18 11:04:02;;;;;;;10.40;5.60;;;;;;;1.34;73.41;100106.52;24572;1340;3049609;-65
2022/12/18 11:06:33;;;;;;;10.90;5.50;;;;;;;1.40;72.78;100111.29;24553;1323;3070080;-67
2022/12/18 11:09:04;;;;;;;10.80;5.20;;;;;;;1.29;72.76;100107.80;24564;1333;3026349;-67
2022/12/18 11:11:34;;;;;;;9.50;5.50;;;;;;;1.30;72.61;100106.41;24548;1334;3027334;-66
2022/12/18 11:14:12;;;;;;;10.20;5.50;;;;;;;1.23;72.42;100119.26;24563;1327;3028223;-65
2022/12/18 11:16:47;;;;;;;12.00;5.80;;;;;;;1.22;72.44;100112.55;24569;1327;3051893;-67
2022/12/18 11:19:28;;;;;;;12.00;6.20;;;;;;;1.10;72.71;100116.30;24563;1342;3057704;-69
2022/12/18 11:21:57;;;;;;;11.50;5.40;;;;;;;1.00;72.93;100114.01;24596;1323;3051790;-67
2022/12/18 11:24:31;;;;;;;15.00;6.90;;;;;;;1.13;72.63;100121.30;24583;1324;3026384;-64
2022/12/18 11:27:04;;;;;;;9.90;5.20;;;;;;;1.19;72.43;100116.04;24522;1326;3057222;-63
2022/12/18 11:29:33;;;;;;;;;;;;;;;1.32;71.79;100122.79;24554;1327;3051687;-67
2022/12/18 11:32:15;;;;;;;13.30;5.60;;;;;;;1.28;71.95;100125.42;24585;1333;3026230;-67
2022/12/18 11:34:46;;;;;;;13.80;6.40;;;;;;;1.19;72.20;100125.01;24529;1325;3056872;-67
2022/12/18 11:37:18;;;;;;;13.80;5.80;;;;;;;1.19;72.39;100124.66;24541;1331;3028686;-68
2022/12/18 11:39:54;;;;;;;12.50;5.90;;;;;;;1.22;72.74;100125.66;24519;1334;3027149;-66
2022/12/18 11:42:27;;;;;;;18.40;7.10;;;;;;;1.18;72.88;100131.41;24542;1324;3051904;-68
2022/12/18 11:45:14;;;;;;;14.00;7.10;;;;;;;1.15;73.30;100125.91;24618;1331;3026410;-67
2022/12/18 11:48:19;;;;;;;14.50;6.90;;;;;;;1.12;73.66;100135.27;24529;1334;3049902;-63
2022/12/18 11:51:09;;;;;;;13.20;7.00;;;;;;;1.01;73.48;100136.08;24482;1324;3068762;-67
2022/12/18 11:53:39;;;;;;;17.20;7.40;;;;;;;0.98;73.53;100139.73;24618;1331;3050201;-66
2022/12/18 11:56:30;;;;;;;12.90;6.00;;;;;;;0.87;73.23;100159.86;24540;1331;3025751;-65
2022/12/18 11:59:13;;;;;;;12.30;6.50;;;;;;;0.74;71.17;100146.00;24545;1333;3052813;-65
2022/12/18 12:01:50;;;;;;;10.80;5.20;;;;;;;0.61;70.10;100152.67;24618;1324;3055594;-65
2022/12/18 12:04:35;;;;;;;10.90;5.30;;;;;;;0.65;69.48;100158.51;24507;1324;3052051;-67
2022/12/18 12:07:20;;;;;;;10.20;4.70;;;;;;;0.69;68.90;100170.54;24576;1331;3052419;-67
2022/12/18 12:09:49;;;;;;;7.40;4.10;;;;;;;0.53;67.92;100182.05;24561;1326;3048946;-65
2022/12/18 12:12:46;;;;;;;8.50;4.30;;;;;;;0.48;67.65;100172.09;24565;1324;3026406;-65
2022/12/18 12:15:47;;;;;;;8.80;4.10;;;;;;;0.42;67.19;100176.61;24562;1333;3052866;-65
2022/12/18 12:18:27;;;;;;;10.40;4.80;;;;;;;0.41;67.52;100178.35;24572;1331;3049049;-65
2022/12/18 12:21:33;;;;;;;8.70;4.50;;;;;;;0.49;67.67;100177.95;24583;1324;3068780;-67
2022/12/18 12:24:12;;;;;;;9.80;4.80;;;;;;;0.48;67.30;100188.30;24519;1331;3050758;-66
2022/12/18 12:27:00;;;;;;;9.60;5.00;;;;;;;0.55;67.56;100199.79;24564;1331;3056958;-63
2022/12/18 12:29:51;;;;;;;7.90;4.40;;;;;;;0.45;67.87;100200.23;24543;1317;3053315;-68
2022/12/18 12:32:31;;;;;;;11.70;6.10;;;;;;;0.37;67.30;100203.90;24565;1331;3053402;-66
2022/12/18 12:35:04;;;;;;;9.00;4.90;;;;;;;0.18;66.86;100209.20;24550;1324;3051916;-66
2022/12/18 12:37:52;;;;;;;11.50;6.10;;;;;;;0.09;66.90;100225.95;24540;1340;3053621;-67
2022/12/18 12:40:23;;;;;;;14.00;6.70;;;;;;;0.17;67.18;100228.50;24557;1331;3049645;-64
2022/12/18 12:43:21;;;;;;;10.40;5.90;;;;;;;0.07;67.00;100226.14;24600;1324;3026458;-68
2022/12/18 12:46:05;;;;;;;11.90;5.90;;;;;;;0.10;67.24;100223.70;24526;1331;3050465;-67
2022/12/18 12:48:46;;;;;;;10.70;5.60;;;;;;;0.11;67.07;100231.97;24572;1330;3057228;-65
2022/12/18 12:51:21;;;;;;;9.80;5.00;;;;;;;0.14;67.43;100231.78;24540;1324;3052391;-68
2022/12/18 12:53:51;;;;;;;10.00;5.60;;;;;;;0.11;67.46;100242.14;24609;1323;3054910;-68
2022/12/18 12:56:21;;;;;;;14.90;6.90;;;;;;;0.08;67.30;100260.59;24555;1334;3026714;-64
2022/12/18 12:58:50;;;;;;;11.40;5.80;;;;;;;0.03;67.97;100254.74;24526;1333;3025841;-65
2022/12/18 13:01:39;;;;;;;15.10;7.30;;;;;;;0.06;67.97;100262.33;24578;1331;3025980;-64
2022/12/18 13:04:12;;;;;;;15.00;7.30;;;;;;;-0.05;68.19;100266.69;24565;1331;3051428;-67
2022/12/18 13:06:57;;;;;;;12.90;6.30;;;;;;;0.03;68.21;100257.52;24573;1334;3030681;-63
2022/12/18 13:09:30;;;;;;;12.20;6.40;;;;;;;0.09;68.73;100256.96;24553;1331;3049420;-66
2022/12/18 13:15:21;;;;;;;11.80;6.10;;;;;;;-0.05;69.44;100267.54;24599;1332;3049495;-65
2022/12/18 13:18:09;;;;;;;15.70;6.60;;;;;;;-0.15;69.75;100276.71;24590;1324;3056475;-64
2022/12/18 13:20:42;;;;;;;12.40;6.50;;;;;;;-0.20;69.33;100266.05;24549;1334;3052120;-68
2022/12/18 13:23:23;;;;;;;11.20;6.00;;;;;;;-0.21;69.93;100282.05;24596;1334;3025969;-68
2022/12/18 13:25:55;;;;;;;10.90;6.30;;;;;;;-0.11;69.65;100282.55;24599;1324;3051694;-65
2022/12/18 13:28:30;;;;;;;15.90;7.90;;;;;;;-0.21;69.74;100277.06;24633;1329;3025953;-67
2022/12/18 13:31:00;;;;;;;13.40;6.30;;;;;;;-0.18;69.93;100281.19;24575;1329;3049792;-66
2022/12/18 13:33:29;;;;;;;12.30;6.20;;;;;;;-0.34;69.35;100293.98;24502;1331;3027969;-67
2022/12/18 13:36:22;;;;;;;11.30;6.40;;;;;;;-0.40;69.13;100299.68;24515;1323;3025862;-63